sensor_id;sensor_type;location;lat;lon;timestamp;temperature;humidity
37410;DHT22;23275;48.914;12.566;2023-12-22T00:01:07;4.30;99.90
37410;DHT22;23275;48.914;12.566;2023-12-22T00:03:32;4.30;99.90
37410;DHT22;23275;48.914;12.566;2023-12-22T00:05:58;4.30;99.90
37410;DHT22;23275;48.914;12.566;2023-12-22T00:08:24;4.40;99.90
37410;DHT22;23275;48.914;12.566;2023-12-22T00:10:49;4.40;99.90
37410;DHT22;23275;48.914;12.566;2023-12-22T00:13:15;4.40;99.90
37410;DHT22;23275;48.914;12.566;2023-12-22T00:15:41;4.50;99.90
37410;DHT22;23275;48.914;12.566;2023-12-22T00:18:08;4.50;99.90
37410;DHT22;23275;48.914;12.566;2023-12-22T00:20:33;4.50;99.90
37410;DHT22;23275;48.914;12.566;2023-12-22T00:22:59;4.50;99.90
37410;DHT22;23275;48.914;12.566;2023-12-22T00:25:25;4.50;99.90
37410;DHT22;23275;48.914;12.566;2023-12-22T00:27:51;4.60;99.90
37410;DHT22;23275;48.914;12.566;2023-12-22T00:30:16;4.60;99.90
37410;DHT22;23275;48.914;12.566;2023-12-22T00:32:42;4.60;99.90
37410;DHT22;23275;48.914;12.566;2023-12-22T00:35:08;4.60;99.90
37410;DHT22;23275;48.914;12.566;2023-12-22T00:37:33;4.70;99.90
37410;DHT22;23275;48.914;12.566;2023-12-22T00:39:59;4.70;99.90
37410;DHT22;23275;48.914;12.566;2023-12-22T00:42:24;4.60;99.90
37410;DHT22;23275;48.914;12.566;2023-12-22T00:44:51;4.60;99.90
37410;DHT22;23275;48.914;12.566;2023-12-22T00:47:17;4.60;99.90
37410;DHT22;23275;48.914;12.566;2023-12-22T00:49:42;4.60;99.90
37410;DHT22;23275;48.914;12.566;2023-12-22T00:52:08;4.60;99.90
37410;DHT22;23275;48.914;12.566;2023-12-22T00:54:33;4.70;99.90
37410;DHT22;23275;48.914;12.566;2023-12-22T00:56:59;4.70;99.90
37410;DHT22;23275;48.914;12.566;2023-12-22T00:59:25;4.70;99.90
37410;DHT22;23275;48.914;12.566;2023-12-22T01:01:50;4.70;99.90
37410;DHT22;23275;48.914;12.566;2023-12-22T01:04:16;4.60;99.90
37410;DHT22;23275;48.914;12.566;2023-12-22T01:06:41;4.60;99.90
37410;DHT22;23275;48.914;12.566;2023-12-22T01:09:07;4.60;99.90
37410;DHT22;23275;48.914;12.566;2023-12-22T01:11:33;4.60;99.90
37410;DHT22;23275;48.914;12.566;2023-12-22T01:13:58;4.60;99.90
37410;DHT22;23275;48.914;12.566;2023-12-22T01:16:24;4.50;99.90
37410;DHT22;23275;48.914;12.566;2023-12-22T01:18:52;4.50;99.90
37410;DHT22;23275;48.914;12.566;2023-12-22T01:21:18;4.50;99.90
37410;DHT22;23275;48.914;12.566;2023-12-22T01:23:43;4.50;99.90
37410;DHT22;23275;48.914;12.566;2023-12-22T01:26:09;4.40;99.90
37410;DHT22;23275;48.914;12.566;2023-12-22T01:28:35;4.30;99.90
37410;DHT22;23275;48.914;12.566;2023-12-22T01:31:01;4.30;99.90
37410;DHT22;23275;48.914;12.566;2023-12-22T01:33:27;4.20;99.90
37410;DHT22;23275;48.914;12.566;2023-12-22T01:35:52;4.20;99.90
37410;DHT22;23275;48.914;12.566;2023-12-22T01:38:18;4.30;99.90
37410;DHT22;23275;48.914;12.566;2023-12-22T01:40:44;4.20;99.90
37410;DHT22;23275;48.914;12.566;2023-12-22T01:43:10;4.20;99.90
37410;DHT22;23275;48.914;12.566;2023-12-22T01:45:35;4.20;99.90
37410;DHT22;23275;48.914;12.566;2023-12-22T01:48:01;4.20;99.90
37410;DHT22;23275;48.914;12.566;2023-12-22T01:50:28;4.30;99.90
37410;DHT22;23275;48.914;12.566;2023-12-22T01:52:54;4.30;99.90
37410;DHT22;23275;48.914;12.566;2023-12-22T01:55:20;4.30;99.90
37410;DHT22;23275;48.914;12.566;2023-12-22T01:57:46;4.20;99.90
37410;DHT22;23275;48.914;12.566;2023-12-22T02:00:13;4.20;99.90
37410;DHT22;23275;48.914;12.566;2023-12-22T02:02:40;4.20;99.90
37410;DHT22;23275;48.914;12.566;2023-12-22T02:05:09;4.20;99.90
37410;DHT22;23275;48.914;12.566;2023-12-22T02:07:38;4.20;99.90
37410;DHT22;23275;48.914;12.566;2023-12-22T02:10:09;4.20;99.90
37410;DHT22;23275;48.914;12.566;2023-12-22T02:12:37;4.20;99.90
37410;DHT22;23275;48.914;12.566;2023-12-22T02:15:04;4.20;99.90
37410;DHT22;23275;48.914;12.566;2023-12-22T02:18:14;4.20;99.90
37410;DHT22;23275;48.914;12.566;2023-12-22T02:20:42;4.20;99.90
37410;DHT22;23275;48.914;12.566;2023-12-22T02:23:09;4.10;99.90
37410;DHT22;23275;48.914;12.566;2023-12-22T02:25:35;4.20;99.90
37410;DHT22;23275;48.914;12.566;2023-12-22T02:28:13;4.10;99.90
37410;DHT22;23275;48.914;12.566;2023-12-22T02:30:54;4.10;99.90
37410;DHT22;23275;48.914;12.566;2023-12-22T02:33:23;4.10;99.90
37410;DHT22;23275;48.914;12.566;2023-12-22T02:35:49;4.10;99.90
37410;DHT22;23275;48.914;12.566;2023-12-22T02:38:16;4.10;99.90
37410;DHT22;23275;48.914;12.566;2023-12-22T02:40:43;4.00;99.90
37410;DHT22;23275;48.914;12.566;2023-12-22T02:43:09;4.00;99.90
37410;DHT22;23275;48.914;12.566;2023-12-22T02:45:35;4.00;99.90
37410;DHT22;23275;48.914;12.566;2023-12-22T02:48:00;4.00;99.90
37410;DHT22;23275;48.914;12.566;2023-12-22T02:50:26;4.00;99.90
37410;DHT22;23275;48.914;12.566;2023-12-22T02:52:51;4.00;99.90
37410;DHT22;23275;48.914;12.566;2023-12-22T02:55:17;4.00;99.90
37410;DHT22;23275;48.914;12.566;2023-12-22T02:57:43;4.00;99.90
37410;DHT22;23275;48.914;12.566;2023-12-22T03:00:09;3.90;99.90
37410;DHT22;23275;48.914;12.566;2023-12-22T03:02:34;3.90;99.90
37410;DHT22;23275;48.914;12.566;2023-12-22T03:05:00;3.80;99.90
37410;DHT22;23275;48.914;12.566;2023-12-22T03:07:26;3.80;99.90
37410;DHT22;23275;48.914;12.566;2023-12-22T03:09:51;3.80;99.90
37410;DHT22;23275;48.914;12.566;2023-12-22T03:12:17;3.80;99.90
37410;DHT22;23275;48.914;12.566;2023-12-22T03:14:42;3.80;99.90
37410;DHT22;23275;48.914;12.566;2023-12-22T03:17:08;3.80;99.90
37410;DHT22;23275;48.914;12.566;2023-12-22T03:19:35;3.80;99.90
37410;DHT22;23275;48.914;12.566;2023-12-22T03:22:00;3.80;99.90
37410;DHT22;23275;48.914;12.566;2023-12-22T03:24:26;3.80;99.90
37410;DHT22;23275;48.914;12.566;2023-12-22T03:26:53;3.80;99.90
37410;DHT22;23275;48.914;12.566;2023-12-22T03:29:19;3.80;99.90
37410;DHT22;23275;48.914;12.566;2023-12-22T03:31:45;3.90;99.90
37410;DHT22;23275;48.914;12.566;2023-12-22T03:34:12;3.90;99.90
37410;DHT22;23275;48.914;12.566;2023-12-22T03:36:37;3.90;99.90
37410;DHT22;23275;48.914;12.566;2023-12-22T03:39:03;3.90;99.90
37410;DHT22;23275;48.914;12.566;2023-12-22T03:41:29;3.90;99.90
37410;DHT22;23275;48.914;12.566;2023-12-22T03:43:58;3.90;99.90
37410;DHT22;23275;48.914;12.566;2023-12-22T03:46:24;3.90;99.90
37410;DHT22;23275;48.914;12.566;2023-12-22T03:48:50;3.90;99.90
37410;DHT22;23275;48.914;12.566;2023-12-22T03:51:16;3.90;99.90
37410;DHT22;23275;48.914;12.566;2023-12-22T03:53:42;3.90;99.90
37410;DHT22;23275;48.914;12.566;2023-12-22T03:56:10;3.90;99.90
37410;DHT22;23275;48.914;12.566;2023-12-22T03:58:36;3.80;99.90
37410;DHT22;23275;48.914;12.566;2023-12-22T04:01:02;3.90;99.90
37410;DHT22;23275;48.914;12.566;2023-12-22T04:03:28;3.90;99.90
37410;DHT22;23275;48.914;12.566;2023-12-22T04:05:53;3.90;99.90
37410;DHT22;23275;48.914;12.566;2023-12-22T04:08:19;3.90;99.90
37410;DHT22;23275;48.914;12.566;2023-12-22T04:10:48;3.90;99.90
37410;DHT22;23275;48.914;12.566;2023-12-22T04:13:14;3.90;99.90
37410;DHT22;23275;48.914;12.566;2023-12-22T04:15:40;3.90;99.90
37410;DHT22;23275;48.914;12.566;2023-12-22T04:18:05;3.90;99.90
37410;DHT22;23275;48.914;12.566;2023-12-22T04:20:31;3.90;99.90
37410;DHT22;23275;48.914;12.566;2023-12-22T04:22:57;3.80;99.90
37410;DHT22;23275;48.914;12.566;2023-12-22T04:25:23;3.80;99.90
37410;DHT22;23275;48.914;12.566;2023-12-22T04:27:50;3.80;99.90
37410;DHT22;23275;48.914;12.566;2023-12-22T04:30:15;3.80;99.90
37410;DHT22;23275;48.914;12.566;2023-12-22T04:32:41;3.70;99.90
37410;DHT22;23275;48.914;12.566;2023-12-22T04:35:07;3.70;99.90
37410;DHT22;23275;48.914;12.566;2023-12-22T04:37:33;3.70;99.90
37410;DHT22;23275;48.914;12.566;2023-12-22T04:39:58;3.60;99.90
37410;DHT22;23275;48.914;12.566;2023-12-22T04:42:24;3.60;99.90
37410;DHT22;23275;48.914;12.566;2023-12-22T04:44:51;3.70;99.90
37410;DHT22;23275;48.914;12.566;2023-12-22T04:47:17;3.70;99.90
37410;DHT22;23275;48.914;12.566;2023-12-22T04:49:42;3.60;99.90
37410;DHT22;23275;48.914;12.566;2023-12-22T04:52:08;3.60;99.90
37410;DHT22;23275;48.914;12.566;2023-12-22T04:54:33;3.50;99.90
37410;DHT22;23275;48.914;12.566;2023-12-22T04:56:59;3.40;99.90
37410;DHT22;23275;48.914;12.566;2023-12-22T04:59:24;3.30;99.90
37410;DHT22;23275;48.914;12.566;2023-12-22T05:01:50;3.30;99.90
37410;DHT22;23275;48.914;12.566;2023-12-22T05:04:15;3.30;99.90
37410;DHT22;23275;48.914;12.566;2023-12-22T05:06:42;3.20;99.90
37410;DHT22;23275;48.914;12.566;2023-12-22T05:09:08;3.30;99.90
37410;DHT22;23275;48.914;12.566;2023-12-22T05:11:34;3.30;99.90
37410;DHT22;23275;48.914;12.566;2023-12-22T05:14:00;3.30;99.90
37410;DHT22;23275;48.914;12.566;2023-12-22T05:16:25;3.30;99.90
37410;DHT22;23275;48.914;12.566;2023-12-22T05:18:51;3.20;99.90
37410;DHT22;23275;48.914;12.566;2023-12-22T05:21:16;3.20;99.90
37410;DHT22;23275;48.914;12.566;2023-12-22T05:23:42;3.20;99.90
37410;DHT22;23275;48.914;12.566;2023-12-22T05:26:07;3.20;99.90
37410;DHT22;23275;48.914;12.566;2023-12-22T05:28:33;3.10;99.90
37410;DHT22;23275;48.914;12.566;2023-12-22T05:30:59;3.10;99.90
37410;DHT22;23275;48.914;12.566;2023-12-22T05:33:24;3.10;99.90
37410;DHT22;23275;48.914;12.566;2023-12-22T05:35:50;3.10;99.90
37410;DHT22;23275;48.914;12.566;2023-12-22T05:38:15;3.10;99.90
37410;DHT22;23275;48.914;12.566;2023-12-22T05:40:41;3.10;99.90
37410;DHT22;23275;48.914;12.566;2023-12-22T05:43:07;3.10;99.90
37410;DHT22;23275;48.914;12.566;2023-12-22T05:45:32;3.10;99.90
37410;DHT22;23275;48.914;12.566;2023-12-22T05:47:58;3.10;99.90
37410;DHT22;23275;48.914;12.566;2023-12-22T05:50:23;3.00;99.90
37410;DHT22;23275;48.914;12.566;2023-12-22T05:52:49;3.10;99.90
37410;DHT22;23275;48.914;12.566;2023-12-22T05:55:15;3.10;99.90
37410;DHT22;23275;48.914;12.566;2023-12-22T05:57:40;3.10;99.90
37410;DHT22;23275;48.914;12.566;2023-12-22T06:00:07;3.10;99.90
37410;DHT22;23275;48.914;12.566;2023-12-22T06:02:33;3.10;99.90
37410;DHT22;23275;48.914;12.566;2023-12-22T06:04:58;3.20;99.90
37410;DHT22;23275;48.914;12.566;2023-12-22T06:07:24;3.20;99.90
37410;DHT22;23275;48.914;12.566;2023-12-22T06:09:50;3.20;99.90
37410;DHT22;23275;48.914;12.566;2023-12-22T06:12:15;3.20;99.90
37410;DHT22;23275;48.914;12.566;2023-12-22T06:14:41;3.20;99.90
37410;DHT22;23275;48.914;12.566;2023-12-22T06:17:06;3.10;99.90
37410;DHT22;23275;48.914;12.566;2023-12-22T06:19:32;3.10;99.90
37410;DHT22;23275;48.914;12.566;2023-12-22T06:21:57;3.10;99.90
37410;DHT22;23275;48.914;12.566;2023-12-22T06:24:23;3.10;99.90
37410;DHT22;23275;48.914;12.566;2023-12-22T06:26:49;3.10;99.90
37410;DHT22;23275;48.914;12.566;2023-12-22T06:29:15;3.10;99.90
37410;DHT22;23275;48.914;12.566;2023-12-22T06:31:41;3.20;99.90
37410;DHT22;23275;48.914;12.566;2023-12-22T06:34:06;3.20;99.90
37410;DHT22;23275;48.914;12.566;2023-12-22T06:36:32;3.10;99.90
37410;DHT22;23275;48.914;12.566;2023-12-22T06:38:57;3.10;99.90
37410;DHT22;23275;48.914;12.566;2023-12-22T06:43:52;3.20;99.90
37410;DHT22;23275;48.914;12.566;2023-12-22T06:46:19;3.20;99.90
37410;DHT22;23275;48.914;12.566;2023-12-22T06:48:45;3.20;99.90
37410;DHT22;23275;48.914;12.566;2023-12-22T06:51:21;3.20;99.90
37410;DHT22;23275;48.914;12.566;2023-12-22T06:53:48;3.20;99.90
37410;DHT22;23275;48.914;12.566;2023-12-22T06:56:19;3.20;99.90
37410;DHT22;23275;48.914;12.566;2023-12-22T06:58:46;3.20;99.90
37410;DHT22;23275;48.914;12.566;2023-12-22T07:01:22;3.20;99.90
37410;DHT22;23275;48.914;12.566;2023-12-22T07:03:48;3.20;99.90
37410;DHT22;23275;48.914;12.566;2023-12-22T07:06:18;3.20;99.90
37410;DHT22;23275;48.914;12.566;2023-12-22T07:08:44;3.30;99.90
37410;DHT22;23275;48.914;12.566;2023-12-22T07:11:10;3.30;99.90
37410;DHT22;23275;48.914;12.566;2023-12-22T07:13:36;3.30;99.90
37410;DHT22;23275;48.914;12.566;2023-12-22T07:16:03;3.40;99.90
37410;DHT22;23275;48.914;12.566;2023-12-22T07:18:28;3.40;99.90
37410;DHT22;23275;48.914;12.566;2023-12-22T07:20:57;3.30;99.90
37410;DHT22;23275;48.914;12.566;2023-12-22T07:23:24;3.40;99.90
37410;DHT22;23275;48.914;12.566;2023-12-22T07:25:49;3.40;99.90
37410;DHT22;23275;48.914;12.566;2023-12-22T07:28:15;3.40;99.90
37410;DHT22;23275;48.914;12.566;2023-12-22T07:30:41;3.40;99.90
37410;DHT22;23275;48.914;12.566;2023-12-22T07:33:07;3.40;99.90
37410;DHT22;23275;48.914;12.566;2023-12-22T07:35:32;3.40;99.90
37410;DHT22;23275;48.914;12.566;2023-12-22T07:37:58;3.50;99.90
37410;DHT22;23275;48.914;12.566;2023-12-22T07:40:25;3.50;99.90
37410;DHT22;23275;48.914;12.566;2023-12-22T07:42:51;3.50;99.90
37410;DHT22;23275;48.914;12.566;2023-12-22T07:45:16;3.50;99.90
37410;DHT22;23275;48.914;12.566;2023-12-22T07:47:42;3.60;99.90
37410;DHT22;23275;48.914;12.566;2023-12-22T07:50:08;3.70;99.90
37410;DHT22;23275;48.914;12.566;2023-12-22T07:52:35;3.80;99.90
37410;DHT22;23275;48.914;12.566;2023-12-22T07:55:05;3.80;99.90
37410;DHT22;23275;48.914;12.566;2023-12-22T07:57:31;3.80;99.90
37410;DHT22;23275;48.914;12.566;2023-12-22T07:59:57;3.80;99.90
37410;DHT22;23275;48.914;12.566;2023-12-22T08:02:22;3.70;99.90
37410;DHT22;23275;48.914;12.566;2023-12-22T08:04:49;3.80;99.90
37410;DHT22;23275;48.914;12.566;2023-12-22T08:07:16;3.80;99.90
37410;DHT22;23275;48.914;12.566;2023-12-22T08:09:41;3.80;99.90
37410;DHT22;23275;48.914;12.566;2023-12-22T08:12:07;3.80;99.90
37410;DHT22;23275;48.914;12.566;2023-12-22T08:14:33;3.80;99.90
37410;DHT22;23275;48.914;12.566;2023-12-22T08:16:58;3.70;99.90
37410;DHT22;23275;48.914;12.566;2023-12-22T08:19:24;3.70;99.90
37410;DHT22;23275;48.914;12.566;2023-12-22T08:21:52;3.70;99.90
37410;DHT22;23275;48.914;12.566;2023-12-22T08:24:18;3.70;99.90
37410;DHT22;23275;48.914;12.566;2023-12-22T08:26:43;3.70;99.90
37410;DHT22;23275;48.914;12.566;2023-12-22T08:29:09;3.70;99.90
37410;DHT22;23275;48.914;12.566;2023-12-22T08:31:34;3.70;99.90
37410;DHT22;23275;48.914;12.566;2023-12-22T08:34:00;3.80;99.90
37410;DHT22;23275;48.914;12.566;2023-12-22T08:36:25;3.80;99.90
37410;DHT22;23275;48.914;12.566;2023-12-22T08:38:51;3.90;99.90
37410;DHT22;23275;48.914;12.566;2023-12-22T08:41:17;3.90;99.90
37410;DHT22;23275;48.914;12.566;2023-12-22T08:43:42;3.90;99.90
37410;DHT22;23275;48.914;12.566;2023-12-22T08:46:08;3.90;99.90
37410;DHT22;23275;48.914;12.566;2023-12-22T08:48:35;3.90;99.90
37410;DHT22;23275;48.914;12.566;2023-12-22T08:51:01;4.00;99.90
37410;DHT22;23275;48.914;12.566;2023-12-22T08:53:26;4.00;99.90
37410;DHT22;23275;48.914;12.566;2023-12-22T08:55:55;4.10;99.90
37410;DHT22;23275;48.914;12.566;2023-12-22T08:58:21;4.10;99.90
37410;DHT22;23275;48.914;12.566;2023-12-22T09:00:48;4.20;99.90
37410;DHT22;23275;48.914;12.566;2023-12-22T09:03:13;4.30;99.90
37410;DHT22;23275;48.914;12.566;2023-12-22T09:05:39;4.30;99.90
37410;DHT22;23275;48.914;12.566;2023-12-22T09:08:05;4.30;99.90
37410;DHT22;23275;48.914;12.566;2023-12-22T09:10:31;4.30;99.90
37410;DHT22;23275;48.914;12.566;2023-12-22T09:12:57;4.30;99.90
37410;DHT22;23275;48.914;12.566;2023-12-22T09:15:23;4.20;99.90
37410;DHT22;23275;48.914;12.566;2023-12-22T09:17:49;4.30;99.90
37410;DHT22;23275;48.914;12.566;2023-12-22T09:20:17;4.30;99.90
37410;DHT22;23275;48.914;12.566;2023-12-22T09:22:42;4.30;99.90
37410;DHT22;23275;48.914;12.566;2023-12-22T09:25:08;4.40;99.90
37410;DHT22;23275;48.914;12.566;2023-12-22T09:27:34;4.40;99.90
37410;DHT22;23275;48.914;12.566;2023-12-22T09:29:59;4.50;99.90
37410;DHT22;23275;48.914;12.566;2023-12-22T09:32:25;4.50;99.90
37410;DHT22;23275;48.914;12.566;2023-12-22T09:34:52;4.70;99.90
37410;DHT22;23275;48.914;12.566;2023-12-22T09:37:17;4.80;99.90
37410;DHT22;23275;48.914;12.566;2023-12-22T09:39:43;4.80;99.90
37410;DHT22;23275;48.914;12.566;2023-12-22T09:42:09;4.90;99.90
37410;DHT22;23275;48.914;12.566;2023-12-22T09:44:36;5.00;99.90
37410;DHT22;23275;48.914;12.566;2023-12-22T09:47:05;4.90;99.90
37410;DHT22;23275;48.914;12.566;2023-12-22T09:49:34;4.90;99.90
37410;DHT22;23275;48.914;12.566;2023-12-22T09:52:02;4.80;99.90
37410;DHT22;23275;48.914;12.566;2023-12-22T09:54:32;4.70;99.90
37410;DHT22;23275;48.914;12.566;2023-12-22T09:56:59;4.40;99.90
37410;DHT22;23275;48.914;12.566;2023-12-22T09:59:25;4.30;99.90
37410;DHT22;23275;48.914;12.566;2023-12-22T10:01:52;4.20;99.90
37410;DHT22;23275;48.914;12.566;2023-12-22T10:04:20;4.30;99.90
37410;DHT22;23275;48.914;12.566;2023-12-22T10:06:47;4.40;99.90
37410;DHT22;23275;48.914;12.566;2023-12-22T10:09:14;4.40;99.90
37410;DHT22;23275;48.914;12.566;2023-12-22T10:11:43;4.60;99.90
37410;DHT22;23275;48.914;12.566;2023-12-22T10:14:09;4.70;99.90
37410;DHT22;23275;48.914;12.566;2023-12-22T10:16:36;4.80;99.90
37410;DHT22;23275;48.914;12.566;2023-12-22T10:19:03;4.80;99.90
37410;DHT22;23275;48.914;12.566;2023-12-22T10:21:29;4.80;99.90
37410;DHT22;23275;48.914;12.566;2023-12-22T10:23:56;4.80;99.90
37410;DHT22;23275;48.914;12.566;2023-12-22T10:26:22;4.80;99.90
37410;DHT22;23275;48.914;12.566;2023-12-22T10:28:48;4.80;99.90
37410;DHT22;23275;48.914;12.566;2023-12-22T10:31:17;4.80;99.90
37410;DHT22;23275;48.914;12.566;2023-12-22T10:33:43;4.90;99.90
37410;DHT22;23275;48.914;12.566;2023-12-22T10:36:09;4.90;99.90
37410;DHT22;23275;48.914;12.566;2023-12-22T10:38:35;4.90;99.90
37410;DHT22;23275;48.914;12.566;2023-12-22T10:41:05;4.90;99.90
37410;DHT22;23275;48.914;12.566;2023-12-22T10:43:39;4.80;99.90
37410;DHT22;23275;48.914;12.566;2023-12-22T10:46:06;4.80;99.90
37410;DHT22;23275;48.914;12.566;2023-12-22T10:48:33;4.80;99.90
37410;DHT22;23275;48.914;12.566;2023-12-22T10:50:59;4.80;99.90
37410;DHT22;23275;48.914;12.566;2023-12-22T10:53:25;4.80;99.90
37410;DHT22;23275;48.914;12.566;2023-12-22T10:55:51;4.70;99.90
37410;DHT22;23275;48.914;12.566;2023-12-22T10:58:17;4.60;99.90
37410;DHT22;23275;48.914;12.566;2023-12-22T11:00:45;4.60;99.90
37410;DHT22;23275;48.914;12.566;2023-12-22T11:03:17;4.50;99.90
37410;DHT22;23275;48.914;12.566;2023-12-22T11:05:46;4.50;99.90
37410;DHT22;23275;48.914;12.566;2023-12-22T11:08:13;4.50;99.90
37410;DHT22;23275;48.914;12.566;2023-12-22T11:10:42;4.40;99.90
37410;DHT22;23275;48.914;12.566;2023-12-22T11:13:12;4.40;99.90
37410;DHT22;23275;48.914;12.566;2023-12-22T11:15:39;4.40;99.90
37410;DHT22;23275;48.914;12.566;2023-12-22T11:18:05;4.40;99.90
37410;DHT22;23275;48.914;12.566;2023-12-22T11:20:33;4.30;99.90
37410;DHT22;23275;48.914;12.566;2023-12-22T11:23:00;4.40;99.90
37410;DHT22;23275;48.914;12.566;2023-12-22T11:25:28;4.30;99.90
37410;DHT22;23275;48.914;12.566;2023-12-22T11:27:55;4.30;99.90
37410;DHT22;23275;48.914;12.566;2023-12-22T11:30:22;4.30;99.90
37410;DHT22;23275;48.914;12.566;2023-12-22T11:32:49;4.20;99.90
37410;DHT22;23275;48.914;12.566;2023-12-22T11:35:16;4.20;99.90
37410;DHT22;23275;48.914;12.566;2023-12-22T11:37:43;4.30;99.90
37410;DHT22;23275;48.914;12.566;2023-12-22T11:40:09;4.30;99.90
37410;DHT22;23275;48.914;12.566;2023-12-22T11:42:43;4.30;99.90
37410;DHT22;23275;48.914;12.566;2023-12-22T11:45:11;4.30;99.90
37410;DHT22;23275;48.914;12.566;2023-12-22T11:47:42;4.30;99.90
37410;DHT22;23275;48.914;12.566;2023-12-22T11:50:10;4.40;99.90
37410;DHT22;23275;48.914;12.566;2023-12-22T11:52:36;4.30;99.90
37410;DHT22;23275;48.914;12.566;2023-12-22T11:55:02;4.30;99.90
37410;DHT22;23275;48.914;12.566;2023-12-22T11:57:28;4.30;99.90
37410;DHT22;23275;48.914;12.566;2023-12-22T12:00:08;4.30;99.90
37410;DHT22;23275;48.914;12.566;2023-12-22T12:02:35;4.20;99.90
37410;DHT22;23275;48.914;12.566;2023-12-22T12:05:01;4.20;99.90
37410;DHT22;23275;48.914;12.566;2023-12-22T12:07:44;4.20;99.90
37410;DHT22;23275;48.914;12.566;2023-12-22T12:10:12;4.20;99.90
37410;DHT22;23275;48.914;12.566;2023-12-22T12:12:38;4.20;99.90
37410;DHT22;23275;48.914;12.566;2023-12-22T12:15:18;4.10;99.90
37410;DHT22;23275;48.914;12.566;2023-12-22T12:17:44;4.10;99.90
37410;DHT22;23275;48.914;12.566;2023-12-22T12:20:11;4.10;99.90
37410;DHT22;23275;48.914;12.566;2023-12-22T12:22:38;4.10;99.90
37410;DHT22;23275;48.914;12.566;2023-12-22T12:25:08;4.00;99.90
37410;DHT22;23275;48.914;12.566;2023-12-22T12:27:36;4.00;99.90
37410;DHT22;23275;48.914;12.566;2023-12-22T12:30:13;3.90;99.90
37410;DHT22;23275;48.914;12.566;2023-12-22T12:32:42;3.90;99.90
37410;DHT22;23275;48.914;12.566;2023-12-22T12:35:09;4.00;99.90
37410;DHT22;23275;48.914;12.566;2023-12-22T12:37:35;4.00;99.90
37410;DHT22;23275;48.914;12.566;2023-12-22T12:40:02;4.20;99.90
37410;DHT22;23275;48.914;12.566;2023-12-22T12:42:30;4.20;99.90
37410;DHT22;23275;48.914;12.566;2023-12-22T12:44:59;4.30;99.90
37410;DHT22;23275;48.914;12.566;2023-12-22T12:47:25;4.30;99.90
37410;DHT22;23275;48.914;12.566;2023-12-22T12:49:58;4.30;99.90
37410;DHT22;23275;48.914;12.566;2023-12-22T12:52:25;4.20;99.90
37410;DHT22;23275;48.914;12.566;2023-12-22T12:54:50;4.10;99.90
37410;DHT22;23275;48.914;12.566;2023-12-22T12:57:17;4.20;99.90
37410;DHT22;23275;48.914;12.566;2023-12-22T12:59:47;4.30;99.90
37410;DHT22;23275;48.914;12.566;2023-12-22T13:02:13;4.30;99.90
37410;DHT22;23275;48.914;12.566;2023-12-22T13:04:39;4.30;99.90
37410;DHT22;23275;48.914;12.566;2023-12-22T13:07:04;4.30;99.90
37410;DHT22;23275;48.914;12.566;2023-12-22T13:09:33;4.30;99.90
37410;DHT22;23275;48.914;12.566;2023-12-22T13:12:00;4.40;99.90
37410;DHT22;23275;48.914;12.566;2023-12-22T13:14:26;4.40;99.90
37410;DHT22;23275;48.914;12.566;2023-12-22T13:16:53;4.40;99.90
37410;DHT22;23275;48.914;12.566;2023-12-22T13:19:24;4.50;99.90
37410;DHT22;23275;48.914;12.566;2023-12-22T13:21:51;4.50;99.90
37410;DHT22;23275;48.914;12.566;2023-12-22T13:24:17;4.50;99.90
37410;DHT22;23275;48.914;12.566;2023-12-22T13:26:44;4.50;99.90
37410;DHT22;23275;48.914;12.566;2023-12-22T13:29:11;4.50;99.90
37410;DHT22;23275;48.914;12.566;2023-12-22T13:31:38;4.60;99.90
37410;DHT22;23275;48.914;12.566;2023-12-22T13:34:08;4.60;99.90
37410;DHT22;23275;48.914;12.566;2023-12-22T13:36:35;4.60;99.90
37410;DHT22;23275;48.914;12.566;2023-12-22T13:39:02;4.70;99.90
37410;DHT22;23275;48.914;12.566;2023-12-22T13:41:32;4.70;99.90
37410;DHT22;23275;48.914;12.566;2023-12-22T13:43:58;4.70;99.90
37410;DHT22;23275;48.914;12.566;2023-12-22T13:46:27;4.70;99.90
37410;DHT22;23275;48.914;12.566;2023-12-22T13:48:54;4.70;99.90
37410;DHT22;23275;48.914;12.566;2023-12-22T13:51:19;4.80;99.90
37410;DHT22;23275;48.914;12.566;2023-12-22T13:53:49;4.80;99.90
37410;DHT22;23275;48.914;12.566;2023-12-22T13:56:14;4.90;99.90
37410;DHT22;23275;48.914;12.566;2023-12-22T13:58:48;4.90;99.90
37410;DHT22;23275;48.914;12.566;2023-12-22T14:01:14;4.90;99.90
37410;DHT22;23275;48.914;12.566;2023-12-22T14:03:43;4.90;99.90
37410;DHT22;23275;48.914;12.566;2023-12-22T14:06:12;4.80;99.90
37410;DHT22;23275;48.914;12.566;2023-12-22T14:08:41;4.70;99.90
37410;DHT22;23275;48.914;12.566;2023-12-22T14:11:10;4.70;99.90
37410;DHT22;23275;48.914;12.566;2023-12-22T14:13:35;4.70;99.90
37410;DHT22;23275;48.914;12.566;2023-12-22T14:16:05;4.70;99.90
37410;DHT22;23275;48.914;12.566;2023-12-22T14:18:31;4.70;99.90
37410;DHT22;23275;48.914;12.566;2023-12-22T14:20:57;4.90;99.90
37410;DHT22;23275;48.914;12.566;2023-12-22T14:23:24;5.00;99.90
37410;DHT22;23275;48.914;12.566;2023-12-22T14:25:49;5.10;99.90
37410;DHT22;23275;48.914;12.566;2023-12-22T14:28:15;5.20;99.90
37410;DHT22;23275;48.914;12.566;2023-12-22T14:30:41;5.20;99.90
37410;DHT22;23275;48.914;12.566;2023-12-22T14:33:06;5.30;99.90
37410;DHT22;23275;48.914;12.566;2023-12-22T14:35:32;5.40;99.90
37410;DHT22;23275;48.914;12.566;2023-12-22T14:37:57;5.40;99.90
37410;DHT22;23275;48.914;12.566;2023-12-22T14:40:23;5.50;99.90
37410;DHT22;23275;48.914;12.566;2023-12-22T14:42:49;5.50;99.90
37410;DHT22;23275;48.914;12.566;2023-12-22T14:45:15;5.60;99.90
37410;DHT22;23275;48.914;12.566;2023-12-22T14:47:41;5.60;99.90
37410;DHT22;23275;48.914;12.566;2023-12-22T14:50:06;5.60;99.90
37410;DHT22;23275;48.914;12.566;2023-12-22T14:52:32;5.60;99.90
37410;DHT22;23275;48.914;12.566;2023-12-22T14:55:01;5.60;99.90
37410;DHT22;23275;48.914;12.566;2023-12-22T14:57:28;5.60;99.90
37410;DHT22;23275;48.914;12.566;2023-12-22T14:59:56;5.60;99.90
37410;DHT22;23275;48.914;12.566;2023-12-22T15:02:22;5.60;99.90
37410;DHT22;23275;48.914;12.566;2023-12-22T15:04:48;5.60;99.90
37410;DHT22;23275;48.914;12.566;2023-12-22T15:07:17;5.60;99.90
37410;DHT22;23275;48.914;12.566;2023-12-22T15:09:43;5.60;99.90
37410;DHT22;23275;48.914;12.566;2023-12-22T15:12:11;5.60;99.90
37410;DHT22;23275;48.914;12.566;2023-12-22T15:14:37;5.60;99.90
37410;DHT22;23275;48.914;12.566;2023-12-22T15:17:03;5.60;99.90
37410;DHT22;23275;48.914;12.566;2023-12-22T15:19:28;5.60;99.90
37410;DHT22;23275;48.914;12.566;2023-12-22T15:21:54;5.50;99.90
37410;DHT22;23275;48.914;12.566;2023-12-22T15:24:20;5.60;99.90
37410;DHT22;23275;48.914;12.566;2023-12-22T15:26:45;5.50;99.90
37410;DHT22;23275;48.914;12.566;2023-12-22T15:29:11;5.50;99.90